Dashbalbar, Mongolia
Current Conditions -  °F | °C
As of 7:30 AM on Saturday 01 Nov 2014 (Local Time) from UIAA Reporting Station
Few Clouds Few Clouds  
Wind Chill:   Ceiling: Unl
Heat Index: 14°   Visibility: 6mi
Dew Point: 10°   Wind: 4mph
Humidity: 86%   Direction: NA
Pressure: 29.97"   Gusts: NA
Location:  49.54°N, 114.39°E
Report Text: UIAA 312330Z VRB02MPS 9999 FEW100 M10/M12 Q1015 NOSIG RMKQFE702 29CLRD70
Loading
Personal Weather Stations






























Interactive Weather Map
Tropical Storm Tracking
New forecast layout! Learn more

10-Day Weather Forecast

Advertisements
Track Severe Weather on mobile